sensor_id;sensor_type;location;lat;lon;timestamp;P1;durP1;ratioP1;P2;durP2;ratioP2
47403;SDS011;33157;51.508;4.288;2023-05-10T00:02:18;36.67;;;19.63;;
47403;SDS011;33157;51.508;4.288;2023-05-10T00:07:29;37.40;;;22.63;;
47403;SDS011;33157;51.508;4.288;2023-05-10T00:12:35;33.42;;;21.33;;
47403;SDS011;33157;51.508;4.288;2023-05-10T00:17:36;34.72;;;20.75;;
47403;SDS011;33157;51.508;4.288;2023-05-10T00:22:39;42.42;;;20.23;;
47403;SDS011;33157;51.508;4.288;2023-05-10T00:27:41;40.75;;;19.20;;
47403;SDS011;33157;51.508;4.288;2023-05-10T00:32:48;41.90;;;19.45;;
47403;SDS011;33157;51.508;4.288;2023-05-10T00:37:52;38.50;;;19.52;;
47403;SDS011;33157;51.508;4.288;2023-05-10T00:43:01;39.70;;;19.92;;
47403;SDS011;33157;51.508;4.288;2023-05-10T00:48:18;39.47;;;20.42;;
47403;SDS011;33157;51.508;4.288;2023-05-10T00:53:26;38.35;;;19.90;;
47403;SDS011;33157;51.508;4.288;2023-05-10T00:58:30;40.95;;;19.70;;
47403;SDS011;33157;51.508;4.288;2023-05-10T01:03:48;37.95;;;21.70;;
47403;SDS011;33157;51.508;4.288;2023-05-10T01:08:54;39.45;;;19.63;;
47403;SDS011;33157;51.508;4.288;2023-05-10T01:13:56;37.67;;;21.48;;
47403;SDS011;33157;51.508;4.288;2023-05-10T01:19:26;36.88;;;20.10;;
47403;SDS011;33157;51.508;4.288;2023-05-10T01:40:37;45.17;;;24.13;;
47403;SDS011;33157;51.508;4.288;2023-05-10T01:45:58;44.05;;;25.48;;
47403;SDS011;33157;51.508;4.288;2023-05-10T01:51:21;45.47;;;24.00;;
47403;SDS011;33157;51.508;4.288;2023-05-10T01:56:55;39.05;;;22.20;;
47403;SDS011;33157;51.508;4.288;2023-05-10T02:02:09;42.35;;;24.33;;
47403;SDS011;33157;51.508;4.288;2023-05-10T02:07:12;48.58;;;28.00;;
47403;SDS011;33157;51.508;4.288;2023-05-10T02:12:14;53.55;;;28.90;;
47403;SDS011;33157;51.508;4.288;2023-05-10T02:17:33;55.15;;;29.92;;
47403;SDS011;33157;51.508;4.288;2023-05-10T02:22:36;44.80;;;29.33;;
47403;SDS011;33157;51.508;4.288;2023-05-10T02:27:43;51.95;;;31.52;;
47403;SDS011;33157;51.508;4.288;2023-05-10T02:32:46;49.55;;;29.10;;
47403;SDS011;33157;51.508;4.288;2023-05-10T02:37:54;50.50;;;29.05;;
47403;SDS011;33157;51.508;4.288;2023-05-10T02:43:02;58.53;;;31.42;;
47403;SDS011;33157;51.508;4.288;2023-05-10T02:48:04;43.70;;;19.67;;
47403;SDS011;33157;51.508;4.288;2023-05-10T02:53:10;30.95;;;17.80;;
47403;SDS011;33157;51.508;4.288;2023-05-10T02:58:23;28.20;;;15.80;;
47403;SDS011;33157;51.508;4.288;2023-05-10T03:03:24;27.40;;;16.33;;
47403;SDS011;33157;51.508;4.288;2023-05-10T03:08:25;23.75;;;16.83;;
47403;SDS011;33157;51.508;4.288;2023-05-10T03:13:35;30.27;;;18.70;;
47403;SDS011;33157;51.508;4.288;2023-05-10T03:18:44;38.25;;;21.73;;
47403;SDS011;33157;51.508;4.288;2023-05-10T03:23:51;45.40;;;26.45;;
47403;SDS011;33157;51.508;4.288;2023-05-10T03:29:06;49.80;;;26.40;;
47403;SDS011;33157;51.508;4.288;2023-05-10T03:34:16;54.42;;;26.02;;
47403;SDS011;33157;51.508;4.288;2023-05-10T03:39:18;45.58;;;26.63;;
47403;SDS011;33157;51.508;4.288;2023-05-10T03:44:29;31.33;;;21.23;;
47403;SDS011;33157;51.508;4.288;2023-05-10T03:49:33;46.00;;;28.50;;
47403;SDS011;33157;51.508;4.288;2023-05-10T03:54:41;41.00;;;28.25;;
47403;SDS011;33157;51.508;4.288;2023-05-10T03:59:43;42.40;;;26.67;;
47403;SDS011;33157;51.508;4.288;2023-05-10T04:04:56;24.63;;;14.98;;
47403;SDS011;33157;51.508;4.288;2023-05-10T04:09:58;20.75;;;7.93;;
47403;SDS011;33157;51.508;4.288;2023-05-10T04:20:08;21.55;;;8.20;;
47403;SDS011;33157;51.508;4.288;2023-05-10T04:25:13;18.80;;;8.40;;
47403;SDS011;33157;51.508;4.288;2023-05-10T04:30:17;22.33;;;8.70;;
47403;SDS011;33157;51.508;4.288;2023-05-10T04:35:26;15.82;;;7.35;;
47403;SDS011;33157;51.508;4.288;2023-05-10T04:40:37;17.70;;;7.72;;
47403;SDS011;33157;51.508;4.288;2023-05-10T04:45:41;19.05;;;8.80;;
47403;SDS011;33157;51.508;4.288;2023-05-10T04:50:46;17.52;;;10.80;;
47403;SDS011;33157;51.508;4.288;2023-05-10T04:56:05;21.08;;;11.95;;
47403;SDS011;33157;51.508;4.288;2023-05-10T05:01:09;20.67;;;10.55;;
47403;SDS011;33157;51.508;4.288;2023-05-10T05:06:32;22.92;;;9.80;;
47403;SDS011;33157;51.508;4.288;2023-05-10T05:11:38;23.25;;;10.70;;
47403;SDS011;33157;51.508;4.288;2023-05-10T05:16:40;20.83;;;12.65;;
47403;SDS011;33157;51.508;4.288;2023-05-10T05:21:50;27.27;;;11.48;;
47403;SDS011;33157;51.508;4.288;2023-05-10T05:26:56;17.30;;;9.97;;
47403;SDS011;33157;51.508;4.288;2023-05-10T05:31:57;22.88;;;12.63;;
47403;SDS011;33157;51.508;4.288;2023-05-10T05:37:05;22.33;;;12.82;;
47403;SDS011;33157;51.508;4.288;2023-05-10T05:42:09;27.25;;;14.73;;
47403;SDS011;33157;51.508;4.288;2023-05-10T05:47:17;24.67;;;13.35;;
47403;SDS011;33157;51.508;4.288;2023-05-10T05:52:19;26.92;;;14.73;;
47403;SDS011;33157;51.508;4.288;2023-05-10T05:57:25;24.83;;;15.45;;
47403;SDS011;33157;51.508;4.288;2023-05-10T06:02:26;26.65;;;14.40;;
47403;SDS011;33157;51.508;4.288;2023-05-10T06:07:39;25.25;;;13.88;;
47403;SDS011;33157;51.508;4.288;2023-05-10T06:12:48;25.20;;;13.90;;
47403;SDS011;33157;51.508;4.288;2023-05-10T06:17:55;24.25;;;13.50;;
47403;SDS011;33157;51.508;4.288;2023-05-10T06:22:57;26.50;;;12.75;;
47403;SDS011;33157;51.508;4.288;2023-05-10T06:28:00;17.27;;;9.95;;
47403;SDS011;33157;51.508;4.288;2023-05-10T06:33:07;16.42;;;9.95;;
47403;SDS011;33157;51.508;4.288;2023-05-10T06:38:09;14.93;;;7.60;;
47403;SDS011;33157;51.508;4.288;2023-05-10T06:43:21;16.73;;;9.02;;
47403;SDS011;33157;51.508;4.288;2023-05-10T06:48:22;18.52;;;8.38;;
47403;SDS011;33157;51.508;4.288;2023-05-10T06:53:23;15.48;;;7.50;;
47403;SDS011;33157;51.508;4.288;2023-05-10T06:58:29;16.23;;;7.13;;
47403;SDS011;33157;51.508;4.288;2023-05-10T07:03:31;11.65;;;6.45;;
47403;SDS011;33157;51.508;4.288;2023-05-10T07:08:32;13.93;;;4.53;;
47403;SDS011;33157;51.508;4.288;2023-05-10T07:13:35;10.75;;;5.05;;
47403;SDS011;33157;51.508;4.288;2023-05-10T07:18:40;11.38;;;4.32;;
47403;SDS011;33157;51.508;4.288;2023-05-10T07:23:49;8.30;;;4.18;;
47403;SDS011;33157;51.508;4.288;2023-05-10T07:28:55;7.75;;;4.13;;
47403;SDS011;33157;51.508;4.288;2023-05-10T07:33:56;7.45;;;3.83;;
47403;SDS011;33157;51.508;4.288;2023-05-10T07:38:57;9.18;;;4.72;;
47403;SDS011;33157;51.508;4.288;2023-05-10T07:44:17;10.52;;;6.18;;
47403;SDS011;33157;51.508;4.288;2023-05-10T07:49:21;11.87;;;6.23;;
47403;SDS011;33157;51.508;4.288;2023-05-10T07:54:31;10.00;;;5.38;;
47403;SDS011;33157;51.508;4.288;2023-05-10T07:59:32;7.50;;;4.65;;
47403;SDS011;33157;51.508;4.288;2023-05-10T08:04:33;10.60;;;4.82;;
47403;SDS011;33157;51.508;4.288;2023-05-10T08:09:35;9.57;;;3.88;;
47403;SDS011;33157;51.508;4.288;2023-05-10T08:14:38;6.05;;;3.20;;
47403;SDS011;33157;51.508;4.288;2023-05-10T08:19:45;4.30;;;2.58;;
47403;SDS011;33157;51.508;4.288;2023-05-10T08:24:46;4.00;;;2.88;;
47403;SDS011;33157;51.508;4.288;2023-05-10T08:29:54;4.85;;;2.40;;
47403;SDS011;33157;51.508;4.288;2023-05-10T08:34:58;4.82;;;2.58;;
47403;SDS011;33157;51.508;4.288;2023-05-10T08:40:08;6.57;;;2.20;;
47403;SDS011;33157;51.508;4.288;2023-05-10T08:45:26;4.97;;;2.17;;
47403;SDS011;33157;51.508;4.288;2023-05-10T08:50:38;5.28;;;1.88;;
47403;SDS011;33157;51.508;4.288;2023-05-10T08:55:47;7.55;;;3.45;;
47403;SDS011;33157;51.508;4.288;2023-05-10T09:00:50;2.35;;;1.25;;
47403;SDS011;33157;51.508;4.288;2023-05-10T09:05:56;4.13;;;1.63;;
47403;SDS011;33157;51.508;4.288;2023-05-10T09:10:57;3.78;;;1.77;;
47403;SDS011;33157;51.508;4.288;2023-05-10T09:15:58;3.30;;;1.67;;
47403;SDS011;33157;51.508;4.288;2023-05-10T09:20:59;3.80;;;2.15;;
47403;SDS011;33157;51.508;4.288;2023-05-10T09:26:06;4.00;;;1.60;;
47403;SDS011;33157;51.508;4.288;2023-05-10T09:31:12;3.90;;;1.55;;
47403;SDS011;33157;51.508;4.288;2023-05-10T09:36:15;3.55;;;1.98;;
47403;SDS011;33157;51.508;4.288;2023-05-10T09:41:24;3.38;;;2.13;;
47403;SDS011;33157;51.508;4.288;2023-05-10T09:46:36;4.35;;;2.17;;
47403;SDS011;33157;51.508;4.288;2023-05-10T09:51:38;4.53;;;2.15;;
47403;SDS011;33157;51.508;4.288;2023-05-10T09:56:44;3.17;;;1.45;;
47403;SDS011;33157;51.508;4.288;2023-05-10T10:01:51;3.92;;;2.10;;
47403;SDS011;33157;51.508;4.288;2023-05-10T10:07:00;2.83;;;1.63;;
47403;SDS011;33157;51.508;4.288;2023-05-10T10:12:15;4.10;;;2.28;;
47403;SDS011;33157;51.508;4.288;2023-05-10T10:17:18;5.43;;;2.47;;
47403;SDS011;33157;51.508;4.288;2023-05-10T10:22:27;3.80;;;2.15;;
47403;SDS011;33157;51.508;4.288;2023-05-10T10:38:03;5.18;;;2.17;;
47403;SDS011;33157;51.508;4.288;2023-05-10T10:43:22;4.97;;;1.45;;
47403;SDS011;33157;51.508;4.288;2023-05-10T10:48:26;7.35;;;2.15;;
47403;SDS011;33157;51.508;4.288;2023-05-10T10:53:30;4.53;;;2.25;;
47403;SDS011;33157;51.508;4.288;2023-05-10T10:58:31;4.78;;;1.70;;
47403;SDS011;33157;51.508;4.288;2023-05-10T11:03:32;3.45;;;2.20;;
47403;SDS011;33157;51.508;4.288;2023-05-10T11:08:34;4.55;;;2.33;;
47403;SDS011;33157;51.508;4.288;2023-05-10T11:14:03;6.70;;;2.38;;
47403;SDS011;33157;51.508;4.288;2023-05-10T11:19:24;7.72;;;2.47;;
47403;SDS011;33157;51.508;4.288;2023-05-10T11:24:35;8.90;;;2.80;;
47403;SDS011;33157;51.508;4.288;2023-05-10T11:29:36;7.30;;;2.70;;
47403;SDS011;33157;51.508;4.288;2023-05-10T11:34:38;7.67;;;2.70;;
47403;SDS011;33157;51.508;4.288;2023-05-10T11:39:45;8.18;;;2.70;;
47403;SDS011;33157;51.508;4.288;2023-05-10T11:44:51;7.88;;;3.25;;
47403;SDS011;33157;51.508;4.288;2023-05-10T11:49:53;5.25;;;3.03;;
47403;SDS011;33157;51.508;4.288;2023-05-10T11:54:54;7.13;;;3.00;;
47403;SDS011;33157;51.508;4.288;2023-05-10T11:59:57;5.70;;;3.20;;
47403;SDS011;33157;51.508;4.288;2023-05-10T12:05:18;7.65;;;3.05;;
47403;SDS011;33157;51.508;4.288;2023-05-10T12:10:25;6.82;;;3.33;;
47403;SDS011;33157;51.508;4.288;2023-05-10T12:15:30;7.43;;;3.67;;
47403;SDS011;33157;51.508;4.288;2023-05-10T12:20:31;9.63;;;3.58;;
47403;SDS011;33157;51.508;4.288;2023-05-10T12:25:42;6.47;;;3.58;;
47403;SDS011;33157;51.508;4.288;2023-05-10T12:30:45;8.77;;;3.80;;
47403;SDS011;33157;51.508;4.288;2023-05-10T12:35:58;7.00;;;3.60;;
47403;SDS011;33157;51.508;4.288;2023-05-10T12:41:07;5.20;;;3.17;;
47403;SDS011;33157;51.508;4.288;2023-05-10T12:46:14;7.80;;;3.90;;
47403;SDS011;33157;51.508;4.288;2023-05-10T12:51:18;7.75;;;4.47;;
47403;SDS011;33157;51.508;4.288;2023-05-10T12:56:30;7.47;;;5.28;;
47403;SDS011;33157;51.508;4.288;2023-05-10T13:01:35;9.65;;;5.90;;
47403;SDS011;33157;51.508;4.288;2023-05-10T13:06:41;9.20;;;5.90;;
47403;SDS011;33157;51.508;4.288;2023-05-10T13:11:47;11.37;;;6.43;;
47403;SDS011;33157;51.508;4.288;2023-05-10T13:16:54;8.88;;;6.57;;
47403;SDS011;33157;51.508;4.288;2023-05-10T13:22:02;20.02;;;7.63;;
47403;SDS011;33157;51.508;4.288;2023-05-10T13:27:03;13.20;;;7.50;;
47403;SDS011;33157;51.508;4.288;2023-05-10T13:32:08;12.60;;;7.07;;
47403;SDS011;33157;51.508;4.288;2023-05-10T13:37:11;11.98;;;7.93;;
47403;SDS011;33157;51.508;4.288;2023-05-10T13:42:11;10.97;;;9.03;;
47403;SDS011;33157;51.508;4.288;2023-05-10T13:47:12;12.70;;;8.25;;
47403;SDS011;33157;51.508;4.288;2023-05-10T13:52:13;13.05;;;7.13;;
47403;SDS011;33157;51.508;4.288;2023-05-10T13:57:22;9.05;;;6.15;;
47403;SDS011;33157;51.508;4.288;2023-05-10T14:02:25;12.35;;;6.20;;
47403;SDS011;33157;51.508;4.288;2023-05-10T14:07:27;13.13;;;5.35;;
47403;SDS011;33157;51.508;4.288;2023-05-10T14:12:30;9.85;;;5.13;;
47403;SDS011;33157;51.508;4.288;2023-05-10T14:17:30;10.02;;;4.88;;
47403;SDS011;33157;51.508;4.288;2023-05-10T14:22:43;8.48;;;5.60;;
47403;SDS011;33157;51.508;4.288;2023-05-10T14:27:49;10.90;;;5.17;;
47403;SDS011;33157;51.508;4.288;2023-05-10T14:32:55;8.82;;;3.92;;
47403;SDS011;33157;51.508;4.288;2023-05-10T14:37:59;7.63;;;3.33;;
47403;SDS011;33157;51.508;4.288;2023-05-10T14:43:11;8.35;;;4.22;;
47403;SDS011;33157;51.508;4.288;2023-05-10T14:48:13;12.85;;;5.28;;
47403;SDS011;33157;51.508;4.288;2023-05-10T14:53:29;10.55;;;7.00;;
47403;SDS011;33157;51.508;4.288;2023-05-10T14:58:31;13.02;;;7.82;;
47403;SDS011;33157;51.508;4.288;2023-05-10T15:03:37;17.27;;;9.25;;
47403;SDS011;33157;51.508;4.288;2023-05-10T15:08:41;15.10;;;8.02;;
47403;SDS011;33157;51.508;4.288;2023-05-10T15:13:55;15.13;;;9.57;;
47403;SDS011;33157;51.508;4.288;2023-05-10T15:18:59;15.48;;;9.80;;
47403;SDS011;33157;51.508;4.288;2023-05-10T15:24:02;19.88;;;10.85;;
47403;SDS011;33157;51.508;4.288;2023-05-10T15:29:04;19.45;;;10.30;;
47403;SDS011;33157;51.508;4.288;2023-05-10T15:34:07;22.23;;;12.27;;
47403;SDS011;33157;51.508;4.288;2023-05-10T15:39:13;23.42;;;12.45;;
47403;SDS011;33157;51.508;4.288;2023-05-10T15:44:14;27.13;;;13.25;;
47403;SDS011;33157;51.508;4.288;2023-05-10T15:49:16;21.80;;;13.32;;
47403;SDS011;33157;51.508;4.288;2023-05-10T15:59:36;31.42;;;13.35;;
47403;SDS011;33157;51.508;4.288;2023-05-10T16:04:39;26.02;;;13.27;;
47403;SDS011;33157;51.508;4.288;2023-05-10T16:09:44;19.15;;;12.32;;
47403;SDS011;33157;51.508;4.288;2023-05-10T16:14:50;23.15;;;11.13;;
47403;SDS011;33157;51.508;4.288;2023-05-10T16:19:52;22.33;;;11.43;;
47403;SDS011;33157;51.508;4.288;2023-05-10T16:24:59;18.70;;;10.43;;
47403;SDS011;33157;51.508;4.288;2023-05-10T16:30:00;19.15;;;10.95;;
47403;SDS011;33157;51.508;4.288;2023-05-10T16:35:03;18.65;;;10.40;;
47403;SDS011;33157;51.508;4.288;2023-05-10T16:40:10;15.60;;;9.77;;
47403;SDS011;33157;51.508;4.288;2023-05-10T16:45:29;19.30;;;9.25;;
47403;SDS011;33157;51.508;4.288;2023-05-10T16:50:32;17.65;;;10.43;;
47403;SDS011;33157;51.508;4.288;2023-05-10T16:55:33;17.27;;;9.88;;
47403;SDS011;33157;51.508;4.288;2023-05-10T17:00:54;16.63;;;10.20;;
47403;SDS011;33157;51.508;4.288;2023-05-10T17:06:00;19.25;;;11.77;;
47403;SDS011;33157;51.508;4.288;2023-05-10T17:11:03;15.18;;;8.98;;
47403;SDS011;33157;51.508;4.288;2023-05-10T17:16:04;15.82;;;9.70;;
47403;SDS011;33157;51.508;4.288;2023-05-10T17:21:10;19.05;;;11.00;;
47403;SDS011;33157;51.508;4.288;2023-05-10T17:26:15;15.45;;;10.77;;
47403;SDS011;33157;51.508;4.288;2023-05-10T17:31:18;17.85;;;11.65;;
47403;SDS011;33157;51.508;4.288;2023-05-10T17:36:26;21.20;;;11.70;;
47403;SDS011;33157;51.508;4.288;2023-05-10T17:41:36;18.92;;;10.88;;
47403;SDS011;33157;51.508;4.288;2023-05-10T17:46:40;22.05;;;10.30;;
47403;SDS011;33157;51.508;4.288;2023-05-10T17:51:41;17.08;;;11.73;;
47403;SDS011;33157;51.508;4.288;2023-05-10T17:56:53;17.30;;;11.40;;
47403;SDS011;33157;51.508;4.288;2023-05-10T18:01:58;19.33;;;11.70;;
47403;SDS011;33157;51.508;4.288;2023-05-10T18:07:06;22.58;;;13.77;;
47403;SDS011;33157;51.508;4.288;2023-05-10T18:12:07;21.73;;;13.75;;
47403;SDS011;33157;51.508;4.288;2023-05-10T18:17:13;25.42;;;14.13;;
47403;SDS011;33157;51.508;4.288;2023-05-10T18:22:19;24.95;;;15.38;;
47403;SDS011;33157;51.508;4.288;2023-05-10T18:27:30;21.55;;;14.32;;
47403;SDS011;33157;51.508;4.288;2023-05-10T18:32:33;23.40;;;14.73;;
47403;SDS011;33157;51.508;4.288;2023-05-10T18:37:50;26.50;;;15.88;;
47403;SDS011;33157;51.508;4.288;2023-05-10T18:42:53;28.58;;;16.65;;
47403;SDS011;33157;51.508;4.288;2023-05-10T18:47:54;24.70;;;16.20;;
47403;SDS011;33157;51.508;4.288;2023-05-10T18:53:01;24.07;;;16.77;;
47403;SDS011;33157;51.508;4.288;2023-05-10T18:58:07;28.08;;;16.88;;
47403;SDS011;33157;51.508;4.288;2023-05-10T19:03:14;31.08;;;16.90;;
47403;SDS011;33157;51.508;4.288;2023-05-10T19:08:15;27.20;;;16.23;;
47403;SDS011;33157;51.508;4.288;2023-05-10T19:13:20;35.87;;;17.93;;
47403;SDS011;33157;51.508;4.288;2023-05-10T19:18:22;27.80;;;16.55;;
47403;SDS011;33157;51.508;4.288;2023-05-10T19:23:23;28.05;;;16.98;;
47403;SDS011;33157;51.508;4.288;2023-05-10T19:33:30;23.95;;;15.23;;
47403;SDS011;33157;51.508;4.288;2023-05-10T19:43:40;23.77;;;15.85;;
47403;SDS011;33157;51.508;4.288;2023-05-10T19:48:44;22.45;;;15.20;;
47403;SDS011;33157;51.508;4.288;2023-05-10T19:53:45;28.77;;;15.57;;
47403;SDS011;33157;51.508;4.288;2023-05-10T19:58:46;24.60;;;14.60;;
47403;SDS011;33157;51.508;4.288;2023-05-10T20:03:56;24.45;;;15.10;;
47403;SDS011;33157;51.508;4.288;2023-05-10T20:09:03;26.92;;;15.00;;
47403;SDS011;33157;51.508;4.288;2023-05-10T20:14:07;24.45;;;15.00;;
47403;SDS011;33157;51.508;4.288;2023-05-10T20:19:10;25.33;;;16.23;;
47403;SDS011;33157;51.508;4.288;2023-05-10T20:24:12;27.60;;;15.17;;
47403;SDS011;33157;51.508;4.288;2023-05-10T20:29:15;29.38;;;16.17;;
47403;SDS011;33157;51.508;4.288;2023-05-10T20:34:16;27.38;;;15.95;;
47403;SDS011;33157;51.508;4.288;2023-05-10T20:44:50;25.92;;;15.60;;
47403;SDS011;33157;51.508;4.288;2023-05-10T20:49:56;27.23;;;16.38;;
47403;SDS011;33157;51.508;4.288;2023-05-10T20:54:57;32.20;;;16.88;;
47403;SDS011;33157;51.508;4.288;2023-05-10T21:00:03;26.38;;;15.85;;
47403;SDS011;33157;51.508;4.288;2023-05-10T21:05:08;32.88;;;16.77;;
47403;SDS011;33157;51.508;4.288;2023-05-10T21:10:11;28.65;;;16.92;;
47403;SDS011;33157;51.508;4.288;2023-05-10T21:15:14;31.38;;;17.45;;
47403;SDS011;33157;51.508;4.288;2023-05-10T21:20:18;32.53;;;18.25;;
47403;SDS011;33157;51.508;4.288;2023-05-10T21:25:29;29.35;;;17.92;;
47403;SDS011;33157;51.508;4.288;2023-05-10T21:30:31;34.30;;;18.45;;
47403;SDS011;33157;51.508;4.288;2023-05-10T21:35:51;31.80;;;17.42;;
47403;SDS011;33157;51.508;4.288;2023-05-10T21:40:53;33.55;;;17.65;;
47403;SDS011;33157;51.508;4.288;2023-05-10T21:45:55;37.53;;;18.17;;
47403;SDS011;33157;51.508;4.288;2023-05-10T21:50:56;30.67;;;18.35;;
47403;SDS011;33157;51.508;4.288;2023-05-10T21:56:06;33.38;;;19.08;;
47403;SDS011;33157;51.508;4.288;2023-05-10T22:01:08;39.17;;;18.67;;
47403;SDS011;33157;51.508;4.288;2023-05-10T22:06:14;34.85;;;19.30;;
47403;SDS011;33157;51.508;4.288;2023-05-10T22:11:18;36.08;;;19.33;;
47403;SDS011;33157;51.508;4.288;2023-05-10T22:16:22;39.45;;;21.38;;
47403;SDS011;33157;51.508;4.288;2023-05-10T22:21:34;43.97;;;22.02;;
47403;SDS011;33157;51.508;4.288;2023-05-10T22:26:35;49.55;;;24.23;;
47403;SDS011;33157;51.508;4.288;2023-05-10T22:31:48;46.42;;;22.88;;
47403;SDS011;33157;51.508;4.288;2023-05-10T22:36:50;43.55;;;22.55;;
47403;SDS011;33157;51.508;4.288;2023-05-10T22:41:54;45.25;;;24.17;;
47403;SDS011;33157;51.508;4.288;2023-05-10T22:46:59;44.72;;;23.55;;
47403;SDS011;33157;51.508;4.288;2023-05-10T22:52:06;54.03;;;24.52;;
47403;SDS011;33157;51.508;4.288;2023-05-10T22:57:10;47.80;;;24.73;;
47403;SDS011;33157;51.508;4.288;2023-05-10T23:02:13;45.40;;;22.70;;
47403;SDS011;33157;51.508;4.288;2023-05-10T23:07:32;36.53;;;16.17;;
47403;SDS011;33157;51.508;4.288;2023-05-10T23:12:32;36.33;;;12.50;;
47403;SDS011;33157;51.508;4.288;2023-05-10T23:17:38;30.65;;;9.45;;
47403;SDS011;33157;51.508;4.288;2023-05-10T23:27:45;24.23;;;7.65;;
47403;SDS011;33157;51.508;4.288;2023-05-10T23:32:46;31.35;;;7.70;;
47403;SDS011;33157;51.508;4.288;2023-05-10T23:37:56;27.08;;;8.48;;
47403;SDS011;33157;51.508;4.288;2023-05-10T23:43:00;29.77;;;8.50;;
47403;SDS011;33157;51.508;4.288;2023-05-10T23:48:03;25.52;;;7.75;;
47403;SDS011;33157;51.508;4.288;2023-05-10T23:53:06;23.47;;;7.80;;
